Terminal Aerodrome Forecast
Issued by NWS Bismarck, ND

Home | Current Version | Previous Version | Text Only | Print | Product List | Glossary Off
Versions: 1 2 3 4 5 6 7 8 9 10 11 12 13 14 15 16 17 18 19 20 21 22 23 24 25

000
FTUS43 KBIS 261700
TAFBIS
TAF
KBIS 261736Z 2618/2718 17005KT P6SM -SHRA BKN080
     FM262000 VRB03KT P6SM BKN090
     FM270500 VRB03KT P6SM FEW100
     FM271200 16007KT P6SM FEW100=

USA.gov is the U.S. government's official web portal to all federal, state and local government web resources and services.